createdAt,value
2018-11-29T00:01:28.067Z,10.70
2018-11-29T00:03:32.485Z,10.03
2018-11-29T00:05:36.911Z,9.37
2018-11-29T00:07:41.294Z,11.20
2018-11-29T00:09:45.665Z,9.87
2018-11-29T00:11:50.035Z,13.27
2018-11-29T00:13:54.221Z,10.40
2018-11-29T00:15:58.682Z,9.47
2018-11-29T00:18:03.194Z,8.03
2018-11-29T00:20:10.940Z,10.63
2018-11-29T00:22:15.612Z,7.43
2018-11-29T00:24:19.906Z,7.57
2018-11-29T00:26:24.210Z,10.13
2018-11-29T00:28:28.571Z,8.43
2018-11-29T00:30:32.742Z,9.33
2018-11-29T00:32:37.090Z,6.43
2018-11-29T00:34:41.484Z,8.50
2018-11-29T00:36:45.736Z,6.43
2018-11-29T00:38:50.031Z,5.60
2018-11-29T00:40:55.499Z,8.10
2018-11-29T00:42:59.685Z,8.17
2018-11-29T00:45:04.009Z,8.40
2018-11-29T00:47:08.334Z,5.90
2018-11-29T00:49:12.716Z,7.43
2018-11-29T00:51:17.037Z,9.00
2018-11-29T00:53:21.364Z,9.20
2018-11-29T00:55:25.550Z,6.50
2018-11-29T00:57:29.919Z,8.10
2018-11-29T00:59:34.177Z,7.37
2018-11-29T01:01:42.572Z,7.60
2018-11-29T01:03:46.993Z,6.93
2018-11-29T01:05:51.230Z,6.30
2018-11-29T01:07:55.684Z,6.90
2018-11-29T01:09:59.874Z,10.40
2018-11-29T01:12:04.287Z,7.10
2018-11-29T01:14:08.507Z,6.40
2018-11-29T01:16:12.848Z,12.03
2018-11-29T01:18:17.254Z,7.60
2018-11-29T01:20:22.738Z,8.30
2018-11-29T01:22:26.953Z,7.13
2018-11-29T01:24:31.313Z,6.17
2018-11-29T01:26:35.379Z,6.67
2018-11-29T01:28:39.818Z,8.10
2018-11-29T01:30:44.142Z,7.27
2018-11-29T01:32:48.362Z,7.57
2018-11-29T01:34:52.895Z,6.30
2018-11-29T01:36:57.605Z,9.13
2018-11-29T01:39:01.711Z,6.60
2018-11-29T01:41:06.222Z,11.10
2018-11-29T01:43:10.440Z,7.00
2018-11-29T01:45:14.717Z,7.80
2018-11-29T01:47:18.934Z,15.10
2018-11-29T01:49:23.462Z,7.50
2018-11-29T01:51:27.794Z,10.40
2018-11-29T01:53:32.127Z,13.37
2018-11-29T01:55:36.394Z,7.97
2018-11-29T01:57:40.712Z,7.23
2018-11-29T01:59:45.078Z,7.00
2018-11-29T02:01:49.555Z,6.13
2018-11-29T02:03:53.907Z,6.13
2018-11-29T02:05:58.324Z,6.60
2018-11-29T02:08:02.705Z,6.90
2018-11-29T02:10:17.041Z,6.53
2018-11-29T02:12:21.503Z,5.90
2018-11-29T02:14:25.732Z,6.00
2018-11-29T02:16:30.095Z,7.53
2018-11-29T02:18:34.545Z,8.20
2018-11-29T02:20:38.943Z,8.67
2018-11-29T02:22:43.354Z,6.00
2018-11-29T02:24:47.796Z,9.63
2018-11-29T02:26:51.990Z,8.43
2018-11-29T02:28:56.238Z,12.43
2018-11-29T02:31:00.732Z,7.70
2018-11-29T02:33:05.260Z,6.67
2018-11-29T02:35:09.655Z,9.67
2018-11-29T02:37:14.109Z,6.63
2018-11-29T02:39:18.515Z,6.93
2018-11-29T02:41:22.930Z,8.53
2018-11-29T02:43:27.350Z,9.23
2018-11-29T02:45:31.747Z,8.47
2018-11-29T02:47:36.183Z,7.93
2018-11-29T02:49:40.385Z,7.30
2018-11-29T02:51:44.702Z,6.13
2018-11-29T02:53:48.998Z,9.50
2018-11-29T02:55:53.700Z,8.20
2018-11-29T02:57:57.949Z,7.90
2018-11-29T03:00:02.354Z,8.87
2018-11-29T03:02:06.991Z,7.40
2018-11-29T03:04:11.207Z,7.10
2018-11-29T03:06:15.479Z,8.93
2018-11-29T03:08:19.734Z,6.47
2018-11-29T03:10:27.116Z,7.00
2018-11-29T03:12:31.633Z,8.70
2018-11-29T03:14:36.122Z,8.67
2018-11-29T03:16:40.362Z,7.77
2018-11-29T03:18:44.712Z,8.27
2018-11-29T03:20:49.069Z,6.73
2018-11-29T03:22:53.409Z,6.60
2018-11-29T03:24:57.623Z,9.27
2018-11-29T03:27:01.935Z,8.43
2018-11-29T03:29:06.592Z,7.60
2018-11-29T03:31:10.793Z,8.63
2018-11-29T03:33:15.010Z,10.30
2018-11-29T03:35:19.335Z,20.03
2018-11-29T03:37:23.566Z,6.80
2018-11-29T03:39:28.056Z,7.67
2018-11-29T03:41:32.307Z,8.33
2018-11-29T03:43:36.511Z,7.63
2018-11-29T03:45:40.903Z,6.47
2018-11-29T03:47:45.604Z,5.67
2018-11-29T03:49:49.877Z,6.70
2018-11-29T03:51:54.218Z,11.10
2018-11-29T03:53:58.567Z,7.63
2018-11-29T03:56:02.764Z,8.40
2018-11-29T03:58:07.458Z,8.83
2018-11-29T04:00:14.487Z,8.77
2018-11-29T04:02:18.856Z,10.80
2018-11-29T04:04:23.175Z,6.93
2018-11-29T04:06:27.528Z,7.20
2018-11-29T04:08:31.990Z,7.70
2018-11-29T04:10:36.350Z,8.67
2018-11-29T04:12:40.664Z,6.80
2018-11-29T04:14:45.063Z,9.07
2018-11-29T04:16:49.494Z,9.97
2018-11-29T04:18:53.782Z,9.53
2018-11-29T04:20:58.432Z,8.03
2018-11-29T04:23:02.718Z,8.67
2018-11-29T04:25:08.097Z,8.40
2018-11-29T04:27:12.389Z,10.33
2018-11-29T04:29:16.887Z,10.07
2018-11-29T04:31:21.104Z,9.77
2018-11-29T04:33:26.026Z,12.17
2018-11-29T04:35:30.306Z,12.30
2018-11-29T04:37:34.701Z,12.33
2018-11-29T04:39:39.023Z,11.93
2018-11-29T04:41:43.324Z,11.47
2018-11-29T04:43:47.521Z,13.60
2018-11-29T04:46:02.651Z,14.97
2018-11-29T04:48:09.969Z,16.63
2018-11-29T04:50:11.729Z,13.37
2018-11-29T04:52:16.026Z,13.23
2018-11-29T04:54:20.363Z,11.20
2018-11-29T04:56:24.673Z,11.97
2018-11-29T04:58:28.944Z,15.60
2018-11-29T05:00:33.213Z,13.77
2018-11-29T05:02:38.393Z,13.73
2018-11-29T05:04:43.333Z,22.97
2018-11-29T05:06:47.690Z,13.47
2018-11-29T05:08:52.021Z,15.80
2018-11-29T05:10:56.441Z,14.53
2018-11-29T05:13:00.697Z,13.83
2018-11-29T05:15:05.866Z,17.27
2018-11-29T05:17:10.260Z,13.17
2018-11-29T05:19:14.700Z,14.40
2018-11-29T05:21:18.977Z,13.50
2018-11-29T05:23:23.420Z,14.20
2018-11-29T05:25:27.886Z,26.00
2018-11-29T05:27:32.265Z,15.93
2018-11-29T05:29:36.592Z,17.53
2018-11-29T05:31:40.788Z,22.80
2018-11-29T05:33:45.223Z,18.27
2018-11-29T05:35:49.751Z,18.13
2018-11-29T05:37:53.692Z,21.40
2018-11-29T05:39:58.209Z,23.03
2018-11-29T05:42:02.249Z,19.83
2018-11-29T05:44:06.697Z,20.50
2018-11-29T05:46:11.019Z,23.10
2018-11-29T05:48:15.424Z,18.13
2018-11-29T05:50:19.830Z,19.23
2018-11-29T05:52:24.239Z,23.10
2018-11-29T05:54:28.471Z,18.97
2018-11-29T05:56:32.651Z,18.73
2018-11-29T05:58:37.197Z,17.23
2018-11-29T06:00:41.593Z,20.20
2018-11-29T06:02:46.022Z,23.07
2018-11-29T06:04:53.208Z,20.73
2018-11-29T06:06:57.549Z,19.63
2018-11-29T06:09:01.988Z,23.23
2018-11-29T06:11:06.662Z,25.00
2018-11-29T06:13:10.991Z,24.30
2018-11-29T06:15:15.397Z,23.83
2018-11-29T06:17:19.819Z,21.73
2018-11-29T06:19:24.082Z,23.60
2018-11-29T06:21:28.689Z,21.53
2018-11-29T06:23:33.326Z,22.50
2018-11-29T06:25:37.692Z,25.67
2018-11-29T06:27:42.039Z,22.83
2018-11-29T06:29:46.363Z,20.10
2018-11-29T06:31:50.926Z,20.30
2018-11-29T06:33:55.246Z,21.27
2018-11-29T06:36:02.058Z,24.97
2018-11-29T06:38:04.702Z,20.77
2018-11-29T06:40:11.519Z,20.60
2018-11-29T06:42:15.885Z,22.03
2018-11-29T06:44:20.313Z,20.47
2018-11-29T06:46:25.717Z,27.53
2018-11-29T06:48:29.002Z,21.00
2018-11-29T06:50:33.444Z,18.60
2018-11-29T06:52:37.771Z,22.03
2018-11-29T06:54:42.240Z,23.00
2018-11-29T06:56:46.479Z,25.17
2018-11-29T06:58:50.812Z,19.80
2018-11-29T07:00:55.081Z,23.97
2018-11-29T07:03:00.159Z,21.53
2018-11-29T07:05:04.530Z,17.80
2018-11-29T07:07:08.901Z,20.10
2018-11-29T07:09:13.301Z,20.27
2018-11-29T07:11:17.703Z,20.67
2018-11-29T07:13:22.056Z,22.00
2018-11-29T07:15:26.305Z,20.40
2018-11-29T07:17:30.547Z,24.97
2018-11-29T07:19:34.899Z,18.20
2018-11-29T07:21:53.793Z,21.93
2018-11-29T07:23:58.161Z,20.30
2018-11-29T07:26:02.689Z,20.23
2018-11-29T07:28:07.054Z,18.63
2018-11-29T07:30:13.531Z,17.17
2018-11-29T07:32:22.068Z,17.43
2018-11-29T07:34:26.192Z,20.23
2018-11-29T07:36:30.468Z,19.07
2018-11-29T07:38:35.160Z,21.23
2018-11-29T07:40:39.928Z,19.20
2018-11-29T07:42:44.331Z,19.60
2018-11-29T07:44:48.888Z,20.40
2018-11-29T07:46:53.560Z,18.43
2018-11-29T07:48:58.004Z,19.60
2018-11-29T07:51:02.329Z,16.80
2018-11-29T07:53:07.227Z,21.10
2018-11-29T07:55:16.137Z,23.20
2018-11-29T07:57:20.489Z,17.67
2018-11-29T07:59:24.993Z,19.93
2018-11-29T08:01:29.243Z,18.53
2018-11-29T08:03:34.132Z,17.20
2018-11-29T08:05:38.551Z,18.27
2018-11-29T08:07:47.536Z,19.23
2018-11-29T08:09:48.228Z,16.43
2018-11-29T08:11:52.926Z,16.93
2018-11-29T08:13:57.370Z,17.80
2018-11-29T08:16:01.785Z,19.60
2018-11-29T08:18:06.654Z,16.50
2018-11-29T08:20:12.415Z,18.13
2018-11-29T08:22:16.739Z,16.30
2018-11-29T08:24:21.102Z,19.93
2018-11-29T08:26:25.297Z,19.00
2018-11-29T08:28:29.910Z,21.30
2018-11-29T08:30:34.223Z,15.90
2018-11-29T08:32:39.790Z,16.17
2018-11-29T08:34:44.116Z,15.27
2018-11-29T08:36:48.418Z,16.30
2018-11-29T08:38:52.802Z,14.87
2018-11-29T08:40:57.163Z,16.57
2018-11-29T08:43:01.565Z,15.30
2018-11-29T08:45:06.624Z,19.93
2018-11-29T08:47:11.100Z,15.97
2018-11-29T08:49:15.508Z,27.20
2018-11-29T08:51:19.867Z,16.10
2018-11-29T08:53:24.604Z,17.97
2018-11-29T08:55:29.144Z,16.57
2018-11-29T08:57:33.326Z,18.73
2018-11-29T08:59:37.698Z,18.90
2018-11-29T09:01:41.913Z,16.40
2018-11-29T09:03:46.449Z,16.80
2018-11-29T09:05:50.782Z,17.27
2018-11-29T09:07:55.056Z,19.57
2018-11-29T09:09:59.541Z,16.57
2018-11-29T09:12:03.999Z,16.97
2018-11-29T09:14:08.449Z,19.20
2018-11-29T09:16:12.855Z,16.40
2018-11-29T09:18:17.103Z,18.30
2018-11-29T09:20:22.143Z,18.90
2018-11-29T09:22:26.607Z,17.83
2018-11-29T09:24:31.027Z,18.43
2018-11-29T09:26:35.538Z,16.63
2018-11-29T09:28:39.760Z,22.50
2018-11-29T09:30:44.187Z,17.90
2018-11-29T09:32:49.720Z,19.90
2018-11-29T09:34:54.236Z,18.00
2018-11-29T09:36:59.041Z,19.30
2018-11-29T09:39:04.547Z,16.63
2018-11-29T09:41:09.133Z,18.70
2018-11-29T09:43:13.446Z,17.93
2018-11-29T09:45:20.911Z,18.17
2018-11-29T09:47:26.328Z,29.87
2018-11-29T09:49:30.779Z,19.27
2018-11-29T09:51:35.180Z,20.70
2018-11-29T09:53:39.613Z,20.20
2018-11-29T09:55:43.902Z,24.20
2018-11-29T09:57:49.092Z,19.03
2018-11-29T09:59:53.523Z,20.37
2018-11-29T10:01:57.796Z,22.80
2018-11-29T10:04:02.248Z,20.33
2018-11-29T10:06:06.838Z,20.20
2018-11-29T10:08:12.404Z,27.70
2018-11-29T10:10:16.695Z,21.30
2018-11-29T10:12:21.115Z,22.00
2018-11-29T10:14:25.431Z,20.73
2018-11-29T10:16:29.626Z,23.67
2018-11-29T10:18:34.074Z,21.73
2018-11-29T10:20:38.230Z,22.30
2018-11-29T10:22:43.326Z,26.67
2018-11-29T10:24:47.620Z,24.67
2018-11-29T10:26:51.914Z,26.10
2018-11-29T10:28:56.252Z,24.83
2018-11-29T10:31:01.955Z,24.20
2018-11-29T10:33:06.218Z,23.03
2018-11-29T10:35:10.490Z,21.60
2018-11-29T10:37:14.860Z,22.77
2018-11-29T10:39:19.157Z,22.17
2018-11-29T10:41:23.863Z,24.67
2018-11-29T10:43:28.179Z,19.77
2018-11-29T10:45:32.618Z,21.37
2018-11-29T10:47:36.882Z,24.97
2018-11-29T10:49:41.375Z,21.43
2018-11-29T10:51:45.891Z,22.90
2018-11-29T10:53:50.284Z,24.00
2018-11-29T10:55:54.612Z,22.60
2018-11-29T10:57:58.970Z,25.10
2018-11-29T11:00:03.503Z,20.47
2018-11-29T11:02:13.995Z,22.60
2018-11-29T11:04:18.411Z,23.87
2018-11-29T11:06:22.617Z,21.10
2018-11-29T11:08:27.143Z,23.83
2018-11-29T11:10:31.357Z,24.30
2018-11-29T11:12:35.716Z,21.07
2018-11-29T11:14:40.176Z,26.80
2018-11-29T11:16:44.440Z,22.90
2018-11-29T11:18:48.887Z,25.07
2018-11-29T11:20:53.236Z,26.47
2018-11-29T11:22:58.060Z,27.50
2018-11-29T11:25:02.453Z,24.37
2018-11-29T11:27:06.798Z,24.73
2018-11-29T11:29:10.899Z,29.43
2018-11-29T11:31:15.525Z,24.07
2018-11-29T11:33:20.168Z,21.70
2018-11-29T11:35:24.539Z,24.57
2018-11-29T11:37:28.968Z,24.80
2018-11-29T11:39:33.624Z,28.93
2018-11-29T11:41:38.074Z,22.73
2018-11-29T11:43:42.413Z,24.17
2018-11-29T11:45:47.284Z,25.60
2018-11-29T11:47:52.373Z,21.90
2018-11-29T11:49:56.791Z,23.53
2018-11-29T11:52:01.120Z,24.87
2018-11-29T11:54:06.048Z,23.50
2018-11-29T11:56:10.378Z,23.70
2018-11-29T11:58:14.672Z,22.73
2018-11-29T12:00:25.590Z,23.70
2018-11-29T12:02:29.973Z,21.13
2018-11-29T12:04:34.580Z,23.93
2018-11-29T12:06:38.948Z,19.97
2018-11-29T12:08:43.221Z,21.23
2018-11-29T12:10:48.758Z,23.20
2018-11-29T12:12:53.097Z,23.57
2018-11-29T12:14:57.564Z,23.97
2018-11-29T12:17:02.273Z,18.50
2018-11-29T12:19:07.140Z,20.23
2018-11-29T12:21:11.761Z,23.60
2018-11-29T12:23:16.216Z,19.70
2018-11-29T12:25:22.626Z,19.63
2018-11-29T12:27:26.962Z,17.83
2018-11-29T12:29:31.490Z,22.07
2018-11-29T12:31:35.835Z,21.43
2018-11-29T12:33:40.292Z,21.30
2018-11-29T12:35:44.803Z,20.70
2018-11-29T12:37:49.592Z,23.20
2018-11-29T12:39:54.125Z,25.20
2018-11-29T12:41:58.873Z,25.03
2018-11-29T12:44:03.552Z,22.87
2018-11-29T12:46:08.199Z,23.63
2018-11-29T12:48:12.740Z,23.70
2018-11-29T12:50:20.068Z,22.73
2018-11-29T12:52:24.355Z,23.37
2018-11-29T12:54:28.782Z,20.30
2018-11-29T12:56:33.224Z,18.97
2018-11-29T12:58:37.620Z,18.23
2018-11-29T13:00:42.125Z,19.23
2018-11-29T13:02:47.606Z,21.90
2018-11-29T13:04:51.996Z,21.60
2018-11-29T13:06:57.003Z,22.00
2018-11-29T13:09:06.984Z,18.93
2018-11-29T13:11:11.392Z,20.50
2018-11-29T13:13:15.704Z,20.43
2018-11-29T13:15:36.366Z,24.27
2018-11-29T13:17:40.934Z,19.33
2018-11-29T13:19:45.326Z,21.83
2018-11-29T13:21:50.165Z,19.60
2018-11-29T13:23:59.971Z,23.03
2018-11-29T13:25:59.202Z,23.33
2018-11-29T13:28:03.479Z,20.57
2018-11-29T13:30:10.498Z,21.10
2018-11-29T13:32:15.925Z,22.97
2018-11-29T13:34:20.267Z,26.33
2018-11-29T13:36:24.881Z,23.17
2018-11-29T13:38:29.244Z,20.47
2018-11-29T13:40:33.604Z,23.67
2018-11-29T13:42:38.293Z,19.10
2018-11-29T13:44:42.756Z,20.80
2018-11-29T13:46:47.213Z,19.60
2018-11-29T13:48:53.265Z,19.70
2018-11-29T13:50:57.730Z,16.60
2018-11-29T13:53:01.943Z,19.30
2018-11-29T13:55:07.046Z,21.30
2018-11-29T13:57:11.418Z,16.37
2018-11-29T13:59:21.514Z,18.80
2018-11-29T14:01:26.012Z,19.63
2018-11-29T14:03:30.574Z,16.60
2018-11-29T14:05:34.937Z,17.80
2018-11-29T14:07:39.417Z,19.17
2018-11-29T14:09:43.837Z,14.93
2018-11-29T14:11:48.041Z,21.03
2018-11-29T14:13:52.257Z,17.67
2018-11-29T14:15:56.704Z,17.00
2018-11-29T14:18:01.162Z,17.77
2018-11-29T14:20:06.185Z,17.17
2018-11-29T14:22:10.630Z,18.73
2018-11-29T14:24:14.907Z,15.30
2018-11-29T14:26:19.155Z,18.23
2018-11-29T14:28:23.770Z,21.40
2018-11-29T14:30:28.966Z,16.37
2018-11-29T14:32:33.153Z,22.67
2018-11-29T14:34:37.444Z,16.47
2018-11-29T14:36:42.063Z,21.80
2018-11-29T14:38:46.673Z,19.20
2018-11-29T14:40:51.200Z,17.70
2018-11-29T14:42:55.732Z,17.43
2018-11-29T14:45:00.134Z,35.57
2018-11-29T14:47:04.657Z,19.57
2018-11-29T14:49:09.178Z,18.83
2018-11-29T14:51:13.502Z,18.17
2018-11-29T14:53:17.726Z,17.53
2018-11-29T14:55:22.240Z,19.47
2018-11-29T14:57:26.642Z,19.03
2018-11-29T14:59:31.063Z,17.90
2018-11-29T15:01:35.335Z,19.93
2018-11-29T15:03:39.748Z,19.50
2018-11-29T15:05:44.446Z,20.40
2018-11-29T15:07:48.838Z,19.40
2018-11-29T15:09:53.054Z,20.00
2018-11-29T15:11:57.549Z,18.90
2018-11-29T15:14:01.889Z,19.30
2018-11-29T15:16:06.968Z,16.90
2018-11-29T15:18:11.872Z,17.70
2018-11-29T15:20:18.674Z,17.77
2018-11-29T15:22:23.020Z,16.47
2018-11-29T15:24:27.286Z,22.10
2018-11-29T15:26:31.576Z,18.53
2018-11-29T15:28:35.885Z,17.53
2018-11-29T15:30:40.085Z,19.50
2018-11-29T15:32:44.615Z,17.13
2018-11-29T15:55:52.738Z,15.63
2018-11-29T15:57:56.858Z,17.70
2018-11-29T16:00:01.153Z,23.53
2018-11-29T16:02:05.416Z,21.90
2018-11-29T16:04:09.515Z,16.40
2018-11-29T16:06:13.581Z,18.37
2018-11-29T16:08:17.613Z,17.63
2018-11-29T16:10:22.912Z,19.60
2018-11-29T16:12:26.979Z,16.83
2018-11-29T16:14:31.120Z,16.00
2018-11-29T16:16:35.230Z,17.93
2018-11-29T16:18:39.443Z,18.20
2018-11-29T16:20:43.552Z,15.30
2018-11-29T16:22:47.669Z,17.03
2018-11-29T16:24:51.813Z,14.80
2018-11-29T16:26:55.863Z,16.37
2018-11-29T16:28:59.952Z,14.70
2018-11-29T16:31:04.066Z,13.80
2018-11-29T16:33:10.897Z,14.77
2018-11-29T16:35:15.019Z,20.90
2018-11-29T16:37:19.166Z,16.30
2018-11-29T16:39:23.271Z,14.27
2018-11-29T16:41:27.435Z,15.83
2018-11-29T16:43:31.567Z,14.13
2018-11-29T16:45:38.211Z,16.23
2018-11-29T16:47:42.567Z,16.87
2018-11-29T16:49:55.575Z,10.77
2018-11-29T16:51:59.743Z,14.57
2018-11-29T16:54:03.869Z,12.17
2018-11-29T16:56:07.995Z,11.30
2018-11-29T16:58:14.927Z,9.17
2018-11-29T17:00:25.762Z,11.27
2018-11-29T17:02:29.827Z,11.30
2018-11-29T17:04:33.888Z,11.73
2018-11-29T17:06:37.990Z,11.60
2018-11-29T17:08:42.185Z,11.40
2018-11-29T17:10:46.248Z,10.30
2018-11-29T17:12:55.824Z,10.27
2018-11-29T17:14:59.945Z,9.37
2018-11-29T17:17:04.087Z,9.73
2018-11-29T17:19:08.300Z,16.73
2018-11-29T17:21:12.408Z,10.50
2018-11-29T17:23:16.598Z,11.47
2018-11-29T17:25:20.727Z,9.23
2018-11-29T17:27:24.897Z,10.10
2018-11-29T17:29:29.030Z,9.40
2018-11-29T17:31:33.219Z,11.90
2018-11-29T17:33:37.295Z,10.57
2018-11-29T17:35:41.373Z,13.50
2018-11-29T17:37:45.479Z,10.07
2018-11-29T17:40:06.709Z,12.90
2018-11-29T17:42:11.047Z,9.70
2018-11-29T17:44:19.430Z,13.63
2018-11-29T17:46:24.051Z,14.03
2018-11-29T17:48:28.397Z,13.17
2018-11-29T17:50:35.217Z,12.20
2018-11-29T17:52:39.504Z,15.93
2018-11-29T17:54:43.825Z,12.40
2018-11-29T17:56:48.418Z,11.60
2018-11-29T17:58:53.173Z,10.70
2018-11-29T18:00:57.426Z,11.30
2018-11-29T18:03:02.350Z,11.83
2018-11-29T18:05:08.269Z,13.40
2018-11-29T18:07:12.506Z,15.30
2018-11-29T18:09:16.641Z,11.70
2018-11-29T18:11:21.729Z,11.17
2018-11-29T18:13:27.933Z,9.60
2018-11-29T18:18:11.486Z,13.93
2018-11-29T18:20:20.254Z,8.90
2018-11-29T18:27:51.948Z,10.93
2018-11-29T18:32:24.414Z,8.27
2018-11-29T18:34:28.939Z,9.60
2018-11-29T18:36:33.149Z,7.27
2018-11-29T18:38:37.455Z,9.03
2018-11-29T18:40:41.848Z,11.57
2018-11-29T18:42:46.815Z,11.03
2018-11-29T18:44:51.031Z,10.00
2018-11-29T18:46:55.339Z,10.10
2018-11-29T18:48:59.802Z,8.30
2018-11-29T18:51:04.285Z,9.43
2018-11-29T18:53:08.845Z,10.07
2018-11-29T18:55:13.277Z,9.10
2018-11-29T18:57:17.586Z,9.40
2018-11-29T18:59:21.854Z,10.33
2018-11-29T19:01:26.052Z,9.07
2018-11-29T19:03:30.280Z,13.37
2018-11-29T19:05:35.518Z,10.20
2018-11-29T19:07:39.300Z,9.27
2018-11-29T19:09:43.512Z,12.53
2018-11-29T19:11:47.766Z,11.00
2018-11-29T19:13:51.824Z,8.87
2018-11-29T19:15:56.522Z,9.30
2018-11-29T19:18:00.953Z,9.50
2018-11-29T19:20:05.803Z,10.40
2018-11-29T19:22:10.082Z,11.60
2018-11-29T19:24:14.572Z,9.67
2018-11-29T19:26:19.256Z,16.43
2018-11-29T19:28:23.574Z,10.33
2018-11-29T19:30:29.110Z,12.17
2018-11-29T19:32:33.558Z,9.40
2018-11-29T19:34:37.859Z,8.93
2018-11-29T19:36:42.248Z,12.00
2018-11-29T19:38:46.789Z,12.83
2018-11-29T19:40:51.827Z,14.83
2018-11-29T19:42:56.184Z,15.20
2018-11-29T19:45:00.576Z,13.43
2018-11-29T19:47:05.051Z,11.40
2018-11-29T19:49:09.294Z,11.10
2018-11-29T19:51:13.702Z,11.47
2018-11-29T19:53:19.155Z,15.20
2018-11-29T19:55:27.032Z,18.40
2018-11-29T19:57:31.371Z,17.70
2018-11-29T19:59:35.561Z,15.13
2018-11-29T20:01:40.208Z,12.57
2018-11-29T20:03:44.809Z,13.73
2018-11-29T20:05:49.473Z,12.53
2018-11-29T20:07:53.929Z,14.23
2018-11-29T20:09:58.215Z,16.60
2018-11-29T20:12:02.780Z,18.77
2018-11-29T20:14:07.438Z,20.70
2018-11-29T20:16:11.851Z,18.47
2018-11-29T20:18:16.296Z,20.80
2018-11-29T20:20:20.672Z,17.40
2018-11-29T20:22:25.041Z,16.40
2018-11-29T20:24:29.455Z,17.83
2018-11-29T20:26:33.821Z,17.80
2018-11-29T20:28:38.142Z,17.07
2018-11-29T20:30:42.546Z,16.10
2018-11-29T20:32:47.390Z,15.70
2018-11-29T20:34:51.686Z,16.80
2018-11-29T20:36:56.214Z,17.40
2018-11-29T20:39:00.727Z,16.23
2018-11-29T20:41:05.779Z,19.10
2018-11-29T20:43:10.442Z,15.63
2018-11-29T20:45:35.228Z,17.83
2018-11-29T20:47:39.589Z,15.10
2018-11-29T20:49:44.024Z,16.43
2018-11-29T20:51:48.423Z,16.30
2018-11-29T20:53:52.644Z,14.90
2018-11-29T20:55:56.939Z,16.57
2018-11-29T20:58:01.267Z,18.43
2018-11-29T21:00:07.154Z,15.70
2018-11-29T21:02:11.629Z,16.93
2018-11-29T21:04:15.899Z,15.33
2018-11-29T21:06:20.189Z,14.60
2018-11-29T21:08:24.579Z,16.30
2018-11-29T21:10:28.938Z,15.00
2018-11-29T21:12:33.499Z,14.90
2018-11-29T21:14:37.824Z,18.87
2018-11-29T21:16:42.245Z,17.30
2018-11-29T21:18:46.645Z,15.67
2018-11-29T21:20:51.141Z,15.97
2018-11-29T21:22:55.413Z,15.93
2018-11-29T21:24:59.748Z,19.33
2018-11-29T21:27:04.233Z,18.73
2018-11-29T21:29:08.650Z,17.30
2018-11-29T21:31:13.040Z,15.80
2018-11-29T21:33:17.377Z,16.70
2018-11-29T21:35:22.935Z,15.90
2018-11-29T21:37:27.172Z,17.10
2018-11-29T21:39:31.483Z,18.83
2018-11-29T21:41:35.849Z,18.20
2018-11-29T21:43:40.195Z,20.67
2018-11-29T21:45:44.528Z,17.10
2018-11-29T21:47:48.592Z,23.63
2018-11-29T21:49:52.926Z,21.80
2018-11-29T21:51:57.299Z,19.03
2018-11-29T21:54:01.680Z,18.30
2018-11-29T21:56:05.945Z,17.30
2018-11-29T21:58:10.188Z,21.80
2018-11-29T22:00:19.669Z,18.47
2018-11-29T22:02:24.043Z,18.87
2018-11-29T22:04:28.430Z,15.60
2018-11-29T22:06:32.830Z,21.43
2018-11-29T22:08:37.158Z,15.90
2018-11-29T22:10:41.816Z,16.83
2018-11-29T22:12:46.417Z,21.70
2018-11-29T22:14:50.735Z,18.63
2018-11-29T22:16:55.275Z,26.00
2018-11-29T22:18:59.440Z,17.77
2018-11-29T22:21:04.725Z,18.80
2018-11-29T22:23:09.043Z,17.07
2018-11-29T22:25:13.446Z,14.27
2018-11-29T22:27:17.827Z,15.97
2018-11-29T22:29:22.370Z,13.23
2018-11-29T22:31:26.703Z,17.50
2018-11-29T22:33:31.102Z,15.43
2018-11-29T22:35:35.745Z,15.13
2018-11-29T22:37:40.174Z,14.33
2018-11-29T22:39:44.468Z,16.77
2018-11-29T22:41:48.709Z,17.33
2018-11-29T22:43:53.101Z,14.80
2018-11-29T22:45:57.529Z,15.77
2018-11-29T22:48:01.927Z,16.23
2018-11-29T22:50:06.765Z,12.47
2018-11-29T22:52:11.152Z,14.97
2018-11-29T22:54:15.575Z,14.70
2018-11-29T22:56:20.237Z,14.33
2018-11-29T22:58:24.718Z,15.63
2018-11-29T23:00:34.318Z,11.97
2018-11-29T23:02:38.777Z,11.47
2018-11-29T23:04:43.170Z,12.17
2018-11-29T23:06:47.630Z,13.93
2018-11-29T23:08:52.095Z,15.13
2018-11-29T23:10:56.559Z,16.20
2018-11-29T23:13:01.079Z,16.70
2018-11-29T23:15:06.292Z,12.63
2018-11-29T23:17:10.614Z,12.90
2018-11-29T23:19:15.056Z,14.43
2018-11-29T23:21:19.443Z,15.63
2018-11-29T23:23:23.725Z,12.50
2018-11-29T23:25:27.986Z,13.73
2018-11-29T23:27:32.283Z,13.60
2018-11-29T23:29:36.587Z,14.00
2018-11-29T23:31:40.947Z,10.07
2018-11-29T23:33:45.434Z,10.63
2018-11-29T23:35:49.864Z,12.50
2018-11-29T23:37:54.296Z,10.63
2018-11-29T23:39:58.644Z,14.33
2018-11-29T23:42:03.013Z,11.97
2018-11-29T23:44:07.217Z,11.43
2018-11-29T23:46:11.756Z,12.10
2018-11-29T23:48:16.170Z,14.73
2018-11-29T23:50:20.489Z,10.83
2018-11-29T23:52:24.672Z,9.73
2018-11-29T23:54:29.001Z,10.20
2018-11-29T23:56:33.353Z,10.13
2018-11-29T23:58:37.607Z,11.00
